sensor_id;sensor_type;location;lat;lon;timestamp;P1;durP1;ratioP1;P2;durP2;ratioP2
52642;SDS011;38531;53.296;6.614;2023-06-24T00:02:10;4.22;;;3.35;;
52642;SDS011;38531;53.296;6.614;2023-06-24T00:04:36;5.28;;;3.60;;
52642;SDS011;38531;53.296;6.614;2023-06-24T00:07:01;4.43;;;3.20;;
52642;SDS011;38531;53.296;6.614;2023-06-24T00:09:27;4.82;;;3.42;;
52642;SDS011;38531;53.296;6.614;2023-06-24T00:11:55;4.90;;;3.95;;
52642;SDS011;38531;53.296;6.614;2023-06-24T00:14:21;4.90;;;3.25;;
52642;SDS011;38531;53.296;6.614;2023-06-24T00:16:52;4.25;;;2.72;;
52642;SDS011;38531;53.296;6.614;2023-06-24T00:19:23;3.13;;;2.50;;
52642;SDS011;38531;53.296;6.614;2023-06-24T00:21:50;3.45;;;2.60;;
52642;SDS011;38531;53.296;6.614;2023-06-24T00:24:19;3.70;;;2.50;;
52642;SDS011;38531;53.296;6.614;2023-06-24T00:26:50;3.97;;;2.60;;
52642;SDS011;38531;53.296;6.614;2023-06-24T00:29:17;3.60;;;2.30;;
52642;SDS011;38531;53.296;6.614;2023-06-24T00:31:42;4.40;;;2.60;;
52642;SDS011;38531;53.296;6.614;2023-06-24T00:34:08;4.43;;;2.42;;
52642;SDS011;38531;53.296;6.614;2023-06-24T00:36:34;3.00;;;2.30;;
52642;SDS011;38531;53.296;6.614;2023-06-24T00:39:03;2.92;;;2.20;;
52642;SDS011;38531;53.296;6.614;2023-06-24T00:41:30;2.72;;;1.95;;
52642;SDS011;38531;53.296;6.614;2023-06-24T00:43:57;3.15;;;2.40;;
52642;SDS011;38531;53.296;6.614;2023-06-24T00:46:26;3.97;;;3.05;;
52642;SDS011;38531;53.296;6.614;2023-06-24T00:48:54;5.10;;;3.72;;
52642;SDS011;38531;53.296;6.614;2023-06-24T00:51:20;4.07;;;2.88;;
52642;SDS011;38531;53.296;6.614;2023-06-24T00:53:51;4.38;;;2.67;;
52642;SDS011;38531;53.296;6.614;2023-06-24T00:56:17;3.80;;;2.92;;
52642;SDS011;38531;53.296;6.614;2023-06-24T00:58:46;4.03;;;2.95;;
52642;SDS011;38531;53.296;6.614;2023-06-24T01:01:12;5.15;;;3.10;;
52642;SDS011;38531;53.296;6.614;2023-06-24T01:03:39;3.53;;;2.80;;
52642;SDS011;38531;53.296;6.614;2023-06-24T01:06:05;6.35;;;3.58;;
52642;SDS011;38531;53.296;6.614;2023-06-24T01:08:33;4.53;;;2.97;;
52642;SDS011;38531;53.296;6.614;2023-06-24T01:11:00;6.32;;;3.60;;
52642;SDS011;38531;53.296;6.614;2023-06-24T01:13:25;4.78;;;3.30;;
52642;SDS011;38531;53.296;6.614;2023-06-24T01:15:51;4.70;;;3.13;;
52642;SDS011;38531;53.296;6.614;2023-06-24T01:18:21;4.25;;;2.83;;
52642;SDS011;38531;53.296;6.614;2023-06-24T01:26:55;4.00;;;2.58;;
52642;SDS011;38531;53.296;6.614;2023-06-24T01:29:34;3.85;;;2.85;;
52642;SDS011;38531;53.296;6.614;2023-06-24T01:32:19;5.05;;;3.58;;
52642;SDS011;38531;53.296;6.614;2023-06-24T01:35:05;4.85;;;3.10;;
52642;SDS011;38531;53.296;6.614;2023-06-24T01:37:41;4.70;;;3.67;;
52642;SDS011;38531;53.296;6.614;2023-06-24T01:40:28;3.17;;;2.67;;
52642;SDS011;38531;53.296;6.614;2023-06-24T01:43:00;4.25;;;2.70;;
52642;SDS011;38531;53.296;6.614;2023-06-24T01:45:29;3.15;;;2.05;;
52642;SDS011;38531;53.296;6.614;2023-06-24T01:48:23;2.67;;;2.20;;
52642;SDS011;38531;53.296;6.614;2023-06-24T01:53:22;2.15;;;1.48;;
52642;SDS011;38531;53.296;6.614;2023-06-24T01:55:49;2.22;;;1.63;;
52642;SDS011;38531;53.296;6.614;2023-06-24T01:58:17;2.83;;;1.63;;
52642;SDS011;38531;53.296;6.614;2023-06-24T02:00:46;2.60;;;1.42;;
52642;SDS011;38531;53.296;6.614;2023-06-24T02:03:14;1.30;;;1.00;;
52642;SDS011;38531;53.296;6.614;2023-06-24T02:05:40;2.08;;;1.25;;
52642;SDS011;38531;53.296;6.614;2023-06-24T02:08:08;2.08;;;1.42;;
52642;SDS011;38531;53.296;6.614;2023-06-24T02:10:38;1.60;;;1.10;;
52642;SDS011;38531;53.296;6.614;2023-06-24T02:13:05;1.00;;;0.90;;
52642;SDS011;38531;53.296;6.614;2023-06-24T02:15:35;1.83;;;0.93;;
52642;SDS011;38531;53.296;6.614;2023-06-24T02:18:03;1.23;;;0.90;;
52642;SDS011;38531;53.296;6.614;2023-06-24T02:20:31;1.00;;;0.70;;
52642;SDS011;38531;53.296;6.614;2023-06-24T02:22:57;2.45;;;1.23;;
52642;SDS011;38531;53.296;6.614;2023-06-24T02:25:25;3.10;;;1.30;;
52642;SDS011;38531;53.296;6.614;2023-06-24T02:27:52;2.40;;;1.30;;
52642;SDS011;38531;53.296;6.614;2023-06-24T02:30:20;1.58;;;1.20;;
52642;SDS011;38531;53.296;6.614;2023-06-24T02:32:47;1.50;;;1.00;;
52642;SDS011;38531;53.296;6.614;2023-06-24T02:35:12;2.20;;;1.27;;
52642;SDS011;38531;53.296;6.614;2023-06-24T02:37:38;2.65;;;1.00;;
52642;SDS011;38531;53.296;6.614;2023-06-24T02:40:05;2.33;;;1.70;;
52642;SDS011;38531;53.296;6.614;2023-06-24T02:42:32;1.98;;;1.25;;
52642;SDS011;38531;53.296;6.614;2023-06-24T02:44:58;2.17;;;1.40;;
52642;SDS011;38531;53.296;6.614;2023-06-24T02:47:24;2.47;;;1.52;;
52642;SDS011;38531;53.296;6.614;2023-06-24T02:49:51;2.75;;;1.67;;
52642;SDS011;38531;53.296;6.614;2023-06-24T02:52:19;3.65;;;1.67;;
52642;SDS011;38531;53.296;6.614;2023-06-24T02:54:45;3.65;;;1.77;;
52642;SDS011;38531;53.296;6.614;2023-06-24T02:57:11;2.80;;;2.17;;
52642;SDS011;38531;53.296;6.614;2023-06-24T02:59:39;3.88;;;2.58;;
52642;SDS011;38531;53.296;6.614;2023-06-24T03:02:05;3.13;;;1.98;;
52642;SDS011;38531;53.296;6.614;2023-06-24T03:04:31;4.30;;;1.95;;
52642;SDS011;38531;53.296;6.614;2023-06-24T03:06:57;2.38;;;1.80;;
52642;SDS011;38531;53.296;6.614;2023-06-24T03:09:24;2.83;;;2.00;;
52642;SDS011;38531;53.296;6.614;2023-06-24T03:11:51;4.13;;;2.58;;
52642;SDS011;38531;53.296;6.614;2023-06-24T03:14:18;3.10;;;2.10;;
52642;SDS011;38531;53.296;6.614;2023-06-24T03:16:44;3.05;;;1.77;;
52642;SDS011;38531;53.296;6.614;2023-06-24T03:19:10;3.10;;;2.30;;
52642;SDS011;38531;53.296;6.614;2023-06-24T03:21:35;3.95;;;2.20;;
52642;SDS011;38531;53.296;6.614;2023-06-24T03:24:01;3.75;;;2.50;;
52642;SDS011;38531;53.296;6.614;2023-06-24T03:26:37;3.65;;;2.38;;
52642;SDS011;38531;53.296;6.614;2023-06-24T03:29:04;4.32;;;2.85;;
52642;SDS011;38531;53.296;6.614;2023-06-24T03:31:32;4.00;;;2.67;;
52642;SDS011;38531;53.296;6.614;2023-06-24T03:33:58;4.63;;;3.08;;
52642;SDS011;38531;53.296;6.614;2023-06-24T03:36:23;5.43;;;2.88;;
52642;SDS011;38531;53.296;6.614;2023-06-24T03:38:49;4.85;;;3.22;;
52642;SDS011;38531;53.296;6.614;2023-06-24T03:41:16;4.47;;;2.88;;
52642;SDS011;38531;53.296;6.614;2023-06-24T03:43:41;5.88;;;3.60;;
52642;SDS011;38531;53.296;6.614;2023-06-24T03:46:08;4.70;;;2.95;;
52642;SDS011;38531;53.296;6.614;2023-06-24T03:48:35;5.13;;;3.30;;
52642;SDS011;38531;53.296;6.614;2023-06-24T03:51:01;5.75;;;2.97;;
52642;SDS011;38531;53.296;6.614;2023-06-24T03:53:26;5.47;;;3.45;;
52642;SDS011;38531;53.296;6.614;2023-06-24T03:55:52;4.22;;;2.92;;
52642;SDS011;38531;53.296;6.614;2023-06-24T03:58:18;4.85;;;3.30;;
52642;SDS011;38531;53.296;6.614;2023-06-24T04:00:46;4.60;;;2.67;;
52642;SDS011;38531;53.296;6.614;2023-06-24T04:03:14;6.97;;;3.33;;
52642;SDS011;38531;53.296;6.614;2023-06-24T04:05:43;7.05;;;3.30;;
52642;SDS011;38531;53.296;6.614;2023-06-24T04:08:09;5.38;;;3.28;;
52642;SDS011;38531;53.296;6.614;2023-06-24T04:10:35;4.32;;;2.80;;
52642;SDS011;38531;53.296;6.614;2023-06-24T04:13:01;4.03;;;2.78;;
52642;SDS011;38531;53.296;6.614;2023-06-24T04:15:26;4.32;;;2.80;;
52642;SDS011;38531;53.296;6.614;2023-06-24T04:17:52;3.42;;;2.80;;
52642;SDS011;38531;53.296;6.614;2023-06-24T04:20:18;5.57;;;2.83;;
52642;SDS011;38531;53.296;6.614;2023-06-24T04:22:43;6.20;;;3.22;;
52642;SDS011;38531;53.296;6.614;2023-06-24T04:25:09;5.18;;;3.15;;
52642;SDS011;38531;53.296;6.614;2023-06-24T04:27:35;4.72;;;2.83;;
52642;SDS011;38531;53.296;6.614;2023-06-24T04:30:02;4.18;;;2.80;;
52642;SDS011;38531;53.296;6.614;2023-06-24T04:32:28;4.97;;;3.08;;
52642;SDS011;38531;53.296;6.614;2023-06-24T04:34:54;8.27;;;4.90;;
52642;SDS011;38531;53.296;6.614;2023-06-24T04:37:20;6.90;;;4.20;;
52642;SDS011;38531;53.296;6.614;2023-06-24T04:39:46;6.90;;;4.68;;
52642;SDS011;38531;53.296;6.614;2023-06-24T04:42:12;6.28;;;3.97;;
52642;SDS011;38531;53.296;6.614;2023-06-24T04:44:39;8.10;;;5.40;;
52642;SDS011;38531;53.296;6.614;2023-06-24T04:47:05;6.82;;;4.72;;
52642;SDS011;38531;53.296;6.614;2023-06-24T04:49:31;7.57;;;5.03;;
52642;SDS011;38531;53.296;6.614;2023-06-24T04:51:59;7.15;;;4.70;;
52642;SDS011;38531;53.296;6.614;2023-06-24T04:54:25;8.00;;;4.25;;
52642;SDS011;38531;53.296;6.614;2023-06-24T04:56:52;6.20;;;4.57;;
52642;SDS011;38531;53.296;6.614;2023-06-24T04:59:20;8.40;;;5.53;;
52642;SDS011;38531;53.296;6.614;2023-06-24T05:01:49;9.38;;;5.30;;
52642;SDS011;38531;53.296;6.614;2023-06-24T05:04:14;7.45;;;4.97;;
52642;SDS011;38531;53.296;6.614;2023-06-24T05:06:40;7.78;;;5.07;;
52642;SDS011;38531;53.296;6.614;2023-06-24T05:09:06;7.32;;;5.07;;
52642;SDS011;38531;53.296;6.614;2023-06-24T05:11:31;6.75;;;4.72;;
52642;SDS011;38531;53.296;6.614;2023-06-24T05:13:57;6.38;;;4.18;;
52642;SDS011;38531;53.296;6.614;2023-06-24T05:16:23;5.60;;;3.88;;
52642;SDS011;38531;53.296;6.614;2023-06-24T05:18:49;6.40;;;4.25;;
52642;SDS011;38531;53.296;6.614;2023-06-24T05:21:15;6.45;;;4.55;;
52642;SDS011;38531;53.296;6.614;2023-06-24T05:23:41;6.72;;;4.10;;
52642;SDS011;38531;53.296;6.614;2023-06-24T05:26:07;6.78;;;4.38;;
52642;SDS011;38531;53.296;6.614;2023-06-24T05:28:33;5.22;;;3.95;;
52642;SDS011;38531;53.296;6.614;2023-06-24T05:30:58;7.80;;;4.47;;
52642;SDS011;38531;53.296;6.614;2023-06-24T05:33:24;5.57;;;4.22;;
52642;SDS011;38531;53.296;6.614;2023-06-24T05:35:50;7.03;;;4.55;;
52642;SDS011;38531;53.296;6.614;2023-06-24T05:38:16;5.93;;;4.35;;
52642;SDS011;38531;53.296;6.614;2023-06-24T05:40:42;6.15;;;4.50;;
52642;SDS011;38531;53.296;6.614;2023-06-24T05:43:07;6.45;;;4.78;;
52642;SDS011;38531;53.296;6.614;2023-06-24T05:45:33;5.90;;;4.53;;
52642;SDS011;38531;53.296;6.614;2023-06-24T05:47:59;6.07;;;4.20;;
52642;SDS011;38531;53.296;6.614;2023-06-24T05:50:25;5.38;;;3.75;;
52642;SDS011;38531;53.296;6.614;2023-06-24T05:52:50;6.93;;;3.90;;
52642;SDS011;38531;53.296;6.614;2023-06-24T05:55:16;5.53;;;3.80;;
52642;SDS011;38531;53.296;6.614;2023-06-24T05:57:42;5.47;;;3.50;;
52642;SDS011;38531;53.296;6.614;2023-06-24T06:00:08;4.00;;;3.53;;
52642;SDS011;38531;53.296;6.614;2023-06-24T06:02:34;4.82;;;3.63;;
52642;SDS011;38531;53.296;6.614;2023-06-24T06:05:00;4.72;;;3.70;;
52642;SDS011;38531;53.296;6.614;2023-06-24T06:07:26;6.05;;;3.13;;
52642;SDS011;38531;53.296;6.614;2023-06-24T06:09:52;5.18;;;2.88;;
52642;SDS011;38531;53.296;6.614;2023-06-24T06:12:18;7.03;;;3.55;;
52642;SDS011;38531;53.296;6.614;2023-06-24T06:14:43;3.55;;;2.80;;
52642;SDS011;38531;53.296;6.614;2023-06-24T06:17:09;4.93;;;3.03;;
52642;SDS011;38531;53.296;6.614;2023-06-24T06:19:39;3.85;;;2.83;;
52642;SDS011;38531;53.296;6.614;2023-06-24T06:22:06;3.30;;;2.85;;
52642;SDS011;38531;53.296;6.614;2023-06-24T06:24:33;4.32;;;2.95;;
52642;SDS011;38531;53.296;6.614;2023-06-24T06:26:59;5.15;;;3.63;;
52642;SDS011;38531;53.296;6.614;2023-06-24T06:29:25;4.85;;;3.47;;
52642;SDS011;38531;53.296;6.614;2023-06-24T06:31:51;4.40;;;3.30;;
52642;SDS011;38531;53.296;6.614;2023-06-24T06:34:17;4.22;;;2.50;;
52642;SDS011;38531;53.296;6.614;2023-06-24T06:36:43;4.47;;;2.53;;
52642;SDS011;38531;53.296;6.614;2023-06-24T06:39:09;4.25;;;3.03;;
52642;SDS011;38531;53.296;6.614;2023-06-24T06:41:35;4.82;;;3.30;;
52642;SDS011;38531;53.296;6.614;2023-06-24T06:44:00;3.95;;;2.92;;
52642;SDS011;38531;53.296;6.614;2023-06-24T06:46:26;3.15;;;2.00;;
52642;SDS011;38531;53.296;6.614;2023-06-24T06:48:53;3.65;;;2.72;;
52642;SDS011;38531;53.296;6.614;2023-06-24T06:51:19;2.88;;;2.00;;
52642;SDS011;38531;53.296;6.614;2023-06-24T06:53:45;4.25;;;2.78;;
52642;SDS011;38531;53.296;6.614;2023-06-24T06:56:22;5.15;;;2.88;;
52642;SDS011;38531;53.296;6.614;2023-06-24T06:58:52;5.00;;;2.70;;
52642;SDS011;38531;53.296;6.614;2023-06-24T07:01:18;4.68;;;2.85;;
52642;SDS011;38531;53.296;6.614;2023-06-24T07:03:44;4.03;;;2.40;;
52642;SDS011;38531;53.296;6.614;2023-06-24T07:06:10;4.28;;;2.80;;
52642;SDS011;38531;53.296;6.614;2023-06-24T07:08:36;5.03;;;2.38;;
52642;SDS011;38531;53.296;6.614;2023-06-24T07:11:02;4.00;;;2.47;;
52642;SDS011;38531;53.296;6.614;2023-06-24T07:13:28;3.70;;;2.78;;
52642;SDS011;38531;53.296;6.614;2023-06-24T07:15:54;130.75;;;118.28;;
52642;SDS011;38531;53.296;6.614;2023-06-24T07:18:19;11.63;;;10.52;;
52642;SDS011;38531;53.296;6.614;2023-06-24T07:20:45;5.03;;;2.35;;
52642;SDS011;38531;53.296;6.614;2023-06-24T07:23:11;5.15;;;2.60;;
52642;SDS011;38531;53.296;6.614;2023-06-24T07:25:36;4.28;;;2.30;;
52642;SDS011;38531;53.296;6.614;2023-06-24T07:28:02;4.47;;;2.65;;
52642;SDS011;38531;53.296;6.614;2023-06-24T07:30:28;3.72;;;2.75;;
52642;SDS011;38531;53.296;6.614;2023-06-24T07:32:54;4.05;;;3.15;;
52642;SDS011;38531;53.296;6.614;2023-06-24T07:35:19;3.78;;;2.22;;
52642;SDS011;38531;53.296;6.614;2023-06-24T07:37:45;2.83;;;1.75;;
52642;SDS011;38531;53.296;6.614;2023-06-24T07:40:11;3.83;;;2.55;;
52642;SDS011;38531;53.296;6.614;2023-06-24T07:42:37;487.42;;;451.20;;
52642;SDS011;38531;53.296;6.614;2023-06-24T07:45:02;4.32;;;2.28;;
52642;SDS011;38531;53.296;6.614;2023-06-24T07:47:28;3.00;;;1.60;;
52642;SDS011;38531;53.296;6.614;2023-06-24T07:49:54;180.98;;;168.55;;
52642;SDS011;38531;53.296;6.614;2023-06-24T07:52:20;5.95;;;5.22;;
52642;SDS011;38531;53.296;6.614;2023-06-24T07:54:46;2.00;;;1.40;;
52642;SDS011;38531;53.296;6.614;2023-06-24T07:57:11;6.70;;;2.50;;
52642;SDS011;38531;53.296;6.614;2023-06-24T07:59:37;3.80;;;2.05;;
52642;SDS011;38531;53.296;6.614;2023-06-24T08:02:03;4.35;;;1.83;;
52642;SDS011;38531;53.296;6.614;2023-06-24T08:04:28;3.08;;;1.85;;
52642;SDS011;38531;53.296;6.614;2023-06-24T08:06:54;4.25;;;1.50;;
52642;SDS011;38531;53.296;6.614;2023-06-24T08:09:20;2.53;;;1.60;;
52642;SDS011;38531;53.296;6.614;2023-06-24T08:11:45;4.63;;;2.38;;
52642;SDS011;38531;53.296;6.614;2023-06-24T08:14:11;2.75;;;1.55;;
52642;SDS011;38531;53.296;6.614;2023-06-24T08:16:37;2.33;;;1.63;;
52642;SDS011;38531;53.296;6.614;2023-06-24T08:19:02;3.38;;;2.08;;
52642;SDS011;38531;53.296;6.614;2023-06-24T08:21:28;2.83;;;1.92;;
52642;SDS011;38531;53.296;6.614;2023-06-24T08:23:54;8.70;;;7.03;;
52642;SDS011;38531;53.296;6.614;2023-06-24T08:26:20;405.00;;;374.73;;
52642;SDS011;38531;53.296;6.614;2023-06-24T08:28:49;321.55;;;295.42;;
52642;SDS011;38531;53.296;6.614;2023-06-24T08:31:14;2.95;;;1.70;;
52642;SDS011;38531;53.296;6.614;2023-06-24T08:33:43;382.92;;;353.27;;
52642;SDS011;38531;53.296;6.614;2023-06-24T08:36:12;3.03;;;2.03;;
52642;SDS011;38531;53.296;6.614;2023-06-24T08:38:37;4.45;;;2.17;;
52642;SDS011;38531;53.296;6.614;2023-06-24T08:41:03;443.02;;;401.42;;
52642;SDS011;38531;53.296;6.614;2023-06-24T08:43:29;1003.85;;;823.08;;
52642;SDS011;38531;53.296;6.614;2023-06-24T08:45:54;444.55;;;365.65;;
52642;SDS011;38531;53.296;6.614;2023-06-24T08:48:20;575.63;;;524.15;;
52642;SDS011;38531;53.296;6.614;2023-06-24T08:50:48;595.33;;;529.33;;
52642;SDS011;38531;53.296;6.614;2023-06-24T08:53:18;1064.32;;;815.50;;
52642;SDS011;38531;53.296;6.614;2023-06-24T08:55:45;1175.78;;;870.80;;
52642;SDS011;38531;53.296;6.614;2023-06-24T08:58:12;4.45;;;2.10;;
52642;SDS011;38531;53.296;6.614;2023-06-24T09:00:38;3.67;;;1.70;;
52642;SDS011;38531;53.296;6.614;2023-06-24T09:03:04;4.32;;;1.70;;
52642;SDS011;38531;53.296;6.614;2023-06-24T09:05:29;1034.65;;;691.10;;
52642;SDS011;38531;53.296;6.614;2023-06-24T09:07:55;1043.53;;;682.80;;
52642;SDS011;38531;53.296;6.614;2023-06-24T09:10:31;2.72;;;1.63;;
52642;SDS011;38531;53.296;6.614;2023-06-24T09:13:01;2.83;;;2.05;;
52642;SDS011;38531;53.296;6.614;2023-06-24T09:15:33;2.67;;;1.80;;
52642;SDS011;38531;53.296;6.614;2023-06-24T09:18:00;701.78;;;451.90;;
52642;SDS011;38531;53.296;6.614;2023-06-24T09:20:30;1234.82;;;875.85;;
52642;SDS011;38531;53.296;6.614;2023-06-24T09:23:03;4.07;;;1.90;;
52642;SDS011;38531;53.296;6.614;2023-06-24T09:25:30;4.15;;;2.22;;
52642;SDS011;38531;53.296;6.614;2023-06-24T09:28:02;243.82;;;179.48;;
52642;SDS011;38531;53.296;6.614;2023-06-24T09:30:28;367.13;;;185.50;;
52642;SDS011;38531;53.296;6.614;2023-06-24T09:32:55;4.15;;;2.25;;
52642;SDS011;38531;53.296;6.614;2023-06-24T09:35:21;2.13;;;1.33;;
52642;SDS011;38531;53.296;6.614;2023-06-24T09:37:55;2.78;;;1.70;;
52642;SDS011;38531;53.296;6.614;2023-06-24T09:40:22;3.10;;;1.95;;
52642;SDS011;38531;53.296;6.614;2023-06-24T09:42:55;3.38;;;1.92;;
52642;SDS011;38531;53.296;6.614;2023-06-24T09:45:28;5.50;;;2.00;;
52642;SDS011;38531;53.296;6.614;2023-06-24T09:47:55;3.15;;;1.60;;
52642;SDS011;38531;53.296;6.614;2023-06-24T09:50:23;2.58;;;1.35;;
52642;SDS011;38531;53.296;6.614;2023-06-24T09:52:49;2.33;;;1.33;;
52642;SDS011;38531;53.296;6.614;2023-06-24T09:55:16;3.88;;;1.95;;
52642;SDS011;38531;53.296;6.614;2023-06-24T09:57:46;5.78;;;2.00;;
52642;SDS011;38531;53.296;6.614;2023-06-24T10:00:16;3.30;;;1.52;;
52642;SDS011;38531;53.296;6.614;2023-06-24T10:02:44;12.25;;;2.35;;
52642;SDS011;38531;53.296;6.614;2023-06-24T10:05:14;3.33;;;1.30;;
52642;SDS011;38531;53.296;6.614;2023-06-24T10:07:40;4.05;;;1.90;;
52642;SDS011;38531;53.296;6.614;2023-06-24T10:10:07;2.00;;;1.20;;
52642;SDS011;38531;53.296;6.614;2023-06-24T10:12:34;2.08;;;1.40;;
52642;SDS011;38531;53.296;6.614;2023-06-24T10:15:01;3.15;;;2.10;;
52642;SDS011;38531;53.296;6.614;2023-06-24T10:17:27;3.53;;;2.03;;
52642;SDS011;38531;53.296;6.614;2023-06-24T10:19:53;3.75;;;1.77;;
52642;SDS011;38531;53.296;6.614;2023-06-24T10:22:24;4.80;;;1.77;;
52642;SDS011;38531;53.296;6.614;2023-06-24T10:24:54;3.53;;;1.60;;
52642;SDS011;38531;53.296;6.614;2023-06-24T10:27:22;4.45;;;2.15;;
52642;SDS011;38531;53.296;6.614;2023-06-24T10:29:49;3.95;;;1.80;;
52642;SDS011;38531;53.296;6.614;2023-06-24T10:32:17;3.80;;;1.50;;
52642;SDS011;38531;53.296;6.614;2023-06-24T10:34:45;3.50;;;1.67;;
52642;SDS011;38531;53.296;6.614;2023-06-24T10:50:03;2.47;;;1.27;;
52642;SDS011;38531;53.296;6.614;2023-06-24T10:52:30;2.35;;;1.42;;
52642;SDS011;38531;53.296;6.614;2023-06-24T10:54:56;990.23;;;603.47;;
52642;SDS011;38531;53.296;6.614;2023-06-24T10:57:24;1.45;;;1.10;;
52642;SDS011;38531;53.296;6.614;2023-06-24T10:59:55;1213.43;;;902.30;;
52642;SDS011;38531;53.296;6.614;2023-06-24T11:02:22;1239.65;;;767.97;;
52642;SDS011;38531;53.296;6.614;2023-06-24T11:04:50;1247.78;;;767.53;;
52642;SDS011;38531;53.296;6.614;2023-06-24T11:07:18;1246.90;;;744.47;;
52642;SDS011;38531;53.296;6.614;2023-06-24T11:09:51;1250.90;;;750.90;;
52642;SDS011;38531;53.296;6.614;2023-06-24T11:12:18;1264.10;;;735.33;;
52642;SDS011;38531;53.296;6.614;2023-06-24T11:14:44;1273.07;;;907.33;;
52642;SDS011;38531;53.296;6.614;2023-06-24T11:17:10;1289.37;;;902.67;;
52642;SDS011;38531;53.296;6.614;2023-06-24T11:19:36;1265.77;;;857.97;;
52642;SDS011;38531;53.296;6.614;2023-06-24T11:22:05;1162.80;;;729.13;;
52642;SDS011;38531;53.296;6.614;2023-06-24T11:24:32;1265.47;;;888.60;;
52642;SDS011;38531;53.296;6.614;2023-06-24T11:26:58;1277.37;;;853.37;;
52642;SDS011;38531;53.296;6.614;2023-06-24T11:29:25;1022.25;;;927.97;;
52642;SDS011;38531;53.296;6.614;2023-06-24T11:31:54;633.40;;;586.83;;
52642;SDS011;38531;53.296;6.614;2023-06-24T11:34:20;289.00;;;268.70;;
52642;SDS011;38531;53.296;6.614;2023-06-24T11:36:46;10.32;;;9.63;;
52642;SDS011;38531;53.296;6.614;2023-06-24T11:39:28;26.60;;;24.65;;
52642;SDS011;38531;53.296;6.614;2023-06-24T11:41:54;310.65;;;283.58;;
52642;SDS011;38531;53.296;6.614;2023-06-24T11:44:25;72.85;;;66.38;;
52642;SDS011;38531;53.296;6.614;2023-06-24T11:46:51;5.88;;;5.40;;
52642;SDS011;38531;53.296;6.614;2023-06-24T11:49:18;781.28;;;715.83;;
52642;SDS011;38531;53.296;6.614;2023-06-24T11:51:45;2.17;;;1.98;;
52642;SDS011;38531;53.296;6.614;2023-06-24T11:54:20;2.30;;;1.10;;
52642;SDS011;38531;53.296;6.614;2023-06-24T11:56:49;2.10;;;0.80;;
52642;SDS011;38531;53.296;6.614;2023-06-24T11:59:21;1.63;;;0.90;;
52642;SDS011;38531;53.296;6.614;2023-06-24T12:01:52;2.05;;;1.42;;
52642;SDS011;38531;53.296;6.614;2023-06-24T12:04:31;2.05;;;1.00;;
52642;SDS011;38531;53.296;6.614;2023-06-24T12:11:34;4.65;;;2.50;;
52642;SDS011;38531;53.296;6.614;2023-06-24T12:14:00;2.17;;;1.15;;
52642;SDS011;38531;53.296;6.614;2023-06-24T12:16:25;5.88;;;5.47;;
52642;SDS011;38531;53.296;6.614;2023-06-24T12:18:52;162.10;;;147.80;;
52642;SDS011;38531;53.296;6.614;2023-06-24T12:21:18;10.45;;;9.68;;
52642;SDS011;38531;53.296;6.614;2023-06-24T12:23:44;3.00;;;1.13;;
52642;SDS011;38531;53.296;6.614;2023-06-24T12:26:10;1.50;;;1.02;;
52642;SDS011;38531;53.296;6.614;2023-06-24T12:28:36;3.00;;;1.60;;
52642;SDS011;38531;53.296;6.614;2023-06-24T12:31:02;4.65;;;1.30;;
52642;SDS011;38531;53.296;6.614;2023-06-24T12:33:28;1.35;;;0.90;;
52642;SDS011;38531;53.296;6.614;2023-06-24T12:35:54;3.20;;;1.30;;
52642;SDS011;38531;53.296;6.614;2023-06-24T12:38:20;2.65;;;1.13;;
52642;SDS011;38531;53.296;6.614;2023-06-24T12:40:46;4.90;;;2.15;;
52642;SDS011;38531;53.296;6.614;2023-06-24T12:43:13;9.07;;;2.75;;
52642;SDS011;38531;53.296;6.614;2023-06-24T12:45:39;5.10;;;2.05;;
52642;SDS011;38531;53.296;6.614;2023-06-24T12:48:08;4.03;;;2.22;;
52642;SDS011;38531;53.296;6.614;2023-06-24T12:50:34;7.97;;;4.18;;
52642;SDS011;38531;53.296;6.614;2023-06-24T12:53:01;3.38;;;2.65;;
52642;SDS011;38531;53.296;6.614;2023-06-24T12:55:28;4.57;;;2.10;;
52642;SDS011;38531;53.296;6.614;2023-06-24T12:57:54;3.13;;;1.98;;
52642;SDS011;38531;53.296;6.614;2023-06-24T13:00:20;6.78;;;2.58;;
52642;SDS011;38531;53.296;6.614;2023-06-24T13:02:47;16.23;;;14.73;;
52642;SDS011;38531;53.296;6.614;2023-06-24T13:05:13;24.20;;;21.58;;
52642;SDS011;38531;53.296;6.614;2023-06-24T13:07:39;41.17;;;37.75;;
52642;SDS011;38531;53.296;6.614;2023-06-24T13:10:05;81.97;;;74.72;;
52642;SDS011;38531;53.296;6.614;2023-06-24T13:12:34;38.60;;;35.88;;
52642;SDS011;38531;53.296;6.614;2023-06-24T13:15:00;20.13;;;18.38;;
52642;SDS011;38531;53.296;6.614;2023-06-24T13:17:29;15.85;;;14.55;;
52642;SDS011;38531;53.296;6.614;2023-06-24T13:19:54;14.73;;;13.20;;
52642;SDS011;38531;53.296;6.614;2023-06-24T13:22:20;4.70;;;2.42;;
52642;SDS011;38531;53.296;6.614;2023-06-24T13:24:46;13.68;;;12.27;;
52642;SDS011;38531;53.296;6.614;2023-06-24T13:27:11;8.63;;;7.82;;
52642;SDS011;38531;53.296;6.614;2023-06-24T13:29:37;3.22;;;2.88;;
52642;SDS011;38531;53.296;6.614;2023-06-24T13:32:03;9.88;;;8.82;;
52642;SDS011;38531;53.296;6.614;2023-06-24T13:34:29;7.57;;;2.10;;
52642;SDS011;38531;53.296;6.614;2023-06-24T13:36:55;3.80;;;1.50;;
52642;SDS011;38531;53.296;6.614;2023-06-24T13:39:21;6.95;;;2.50;;
52642;SDS011;38531;53.296;6.614;2023-06-24T13:41:50;3.67;;;1.50;;
52642;SDS011;38531;53.296;6.614;2023-06-24T13:44:17;4.57;;;1.92;;
52642;SDS011;38531;53.296;6.614;2023-06-24T13:46:43;4.70;;;2.03;;
52642;SDS011;38531;53.296;6.614;2023-06-24T13:49:09;5.45;;;1.92;;
52642;SDS011;38531;53.296;6.614;2023-06-24T13:51:35;4.97;;;1.65;;
52642;SDS011;38531;53.296;6.614;2023-06-24T13:54:01;5.15;;;1.83;;
52642;SDS011;38531;53.296;6.614;2023-06-24T13:56:27;6.30;;;1.48;;
52642;SDS011;38531;53.296;6.614;2023-06-24T13:58:54;3.55;;;1.30;;
52642;SDS011;38531;53.296;6.614;2023-06-24T14:01:20;2.83;;;1.55;;
52642;SDS011;38531;53.296;6.614;2023-06-24T14:03:47;4.03;;;1.30;;
52642;SDS011;38531;53.296;6.614;2023-06-24T14:06:14;3.72;;;2.17;;
52642;SDS011;38531;53.296;6.614;2023-06-24T14:08:41;4.80;;;1.45;;
52642;SDS011;38531;53.296;6.614;2023-06-24T14:11:06;5.47;;;2.33;;
52642;SDS011;38531;53.296;6.614;2023-06-24T14:13:32;4.43;;;1.33;;
52642;SDS011;38531;53.296;6.614;2023-06-24T14:15:58;2.85;;;1.77;;
52642;SDS011;38531;53.296;6.614;2023-06-24T14:18:23;6.45;;;2.03;;
52642;SDS011;38531;53.296;6.614;2023-06-24T14:20:50;5.82;;;2.38;;
52642;SDS011;38531;53.296;6.614;2023-06-24T14:23:16;4.57;;;1.83;;
52642;SDS011;38531;53.296;6.614;2023-06-24T14:25:43;4.13;;;1.45;;
52642;SDS011;38531;53.296;6.614;2023-06-24T14:28:08;3.58;;;1.65;;
52642;SDS011;38531;53.296;6.614;2023-06-24T14:30:34;2.88;;;1.20;;
52642;SDS011;38531;53.296;6.614;2023-06-24T14:33:00;3.72;;;1.65;;
52642;SDS011;38531;53.296;6.614;2023-06-24T14:35:26;4.03;;;1.45;;
52642;SDS011;38531;53.296;6.614;2023-06-24T14:37:51;2.80;;;1.10;;
52642;SDS011;38531;53.296;6.614;2023-06-24T14:40:17;2.67;;;1.80;;
52642;SDS011;38531;53.296;6.614;2023-06-24T14:42:43;5.53;;;2.13;;
52642;SDS011;38531;53.296;6.614;2023-06-24T14:45:09;5.00;;;2.25;;
52642;SDS011;38531;53.296;6.614;2023-06-24T14:47:35;6.85;;;2.30;;
52642;SDS011;38531;53.296;6.614;2023-06-24T14:50:01;4.15;;;2.55;;
52642;SDS011;38531;53.296;6.614;2023-06-24T14:52:28;3.75;;;1.30;;
52642;SDS011;38531;53.296;6.614;2023-06-24T14:54:54;2.58;;;1.65;;
52642;SDS011;38531;53.296;6.614;2023-06-24T14:57:20;2.67;;;1.30;;
52642;SDS011;38531;53.296;6.614;2023-06-24T14:59:50;3.42;;;1.33;;
52642;SDS011;38531;53.296;6.614;2023-06-24T15:02:16;2.90;;;1.48;;
52642;SDS011;38531;53.296;6.614;2023-06-24T15:04:42;2.25;;;1.40;;
52642;SDS011;38531;53.296;6.614;2023-06-24T15:07:08;2.92;;;1.77;;